Time,TemperatureF,DewpointF,PressureIn,WindDirection,WindDirectionDegrees,WindSpeedMPH,WindSpeedGustMPH,Humidity,HourlyPrecipIn,Conditions,Clouds,dailyrainin,SoftwareType,DateUTC
2013-09-15 00:03:00,58.5,52.0,30.04,South,178,0.0,1.0,79,0.00,,,0.00,Wunderground v.1.15,2013-09-15 05:03:00,
2013-09-15 00:09:00,58.4,51.9,30.04,SE,140,1.0,1.0,79,0.00,,,0.00,Wunderground v.1.15,2013-09-15 05:09:00,
2013-09-15 00:15:00,58.4,51.9,30.04,NE,54,1.0,2.0,79,0.00,,,0.00,Wunderground v.1.15,2013-09-15 05:15:00,
2013-09-15 00:20:00,58.4,51.9,30.04,ESE,110,0.0,0.0,79,0.00,,,0.00,Wunderground v.1.15,2013-09-15 05:20:00,
2013-09-15 00:26:00,58.3,51.8,30.04,NNE,24,2.0,2.0,79,0.00,,,0.00,Wunderground v.1.15,2013-09-15 05:26:00,
2013-09-15 00:31:00,58.2,51.7,30.04,North,355,1.0,1.0,79,0.00,,,0.00,Wunderground v.1.15,2013-09-15 05:31:00,
2013-09-15 00:37:00,58.1,51.6,30.04,ENE,78,3.0,3.0,79,0.00,,,0.00,Wunderground v.1.15,2013-09-15 05:37:00,
2013-09-15 00:42:00,58.1,51.6,30.03,SE,132,2.0,2.0,79,0.00,,,0.00,Wunderground v.1.15,2013-09-15 05:42:00,
2013-09-15 00:47:00,58.1,51.6,30.04,NW,321,0.0,2.0,79,0.00,,,0.00,Wunderground v.1.15,2013-09-15 05:47:00,
2013-09-15 00:53:00,58.1,51.6,30.04,WSW,247,0.0,1.0,79,0.00,,,0.00,Wunderground v.1.15,2013-09-15 05:53:00,
2013-09-15 00:58:00,58.1,51.6,30.04,NNE,22,1.0,1.0,79,0.00,,,0.00,Wunderground v.1.15,2013-09-15 05:58:00,
2013-09-15 01:04:00,58.1,51.6,30.04,SSE,157,1.0,2.0,79,0.00,,,0.00,Wunderground v.1.15,2013-09-15 06:04:00,
2013-09-15 01:09:00,58.1,51.6,30.04,ENE,64,0.0,4.0,79,0.00,,,0.00,Wunderground v.1.15,2013-09-15 06:09:00,
2013-09-15 01:15:00,58.1,51.6,30.03,ESE,105,1.0,1.0,79,0.00,,,0.00,Wunderground v.1.15,2013-09-15 06:15:00,
2013-09-15 01:20:00,58.1,51.6,30.04,SW,220,0.0,1.0,79,0.00,,,0.00,Wunderground v.1.15,2013-09-15 06:20:00,
2013-09-15 01:25:00,58.0,51.9,30.04,SE,136,1.0,1.0,80,0.00,,,0.00,Wunderground v.1.15,2013-09-15 06:25:00,
2013-09-15 01:31:00,57.9,51.8,30.04,NW,326,0.0,1.0,80,0.00,,,0.00,Wunderground v.1.15,2013-09-15 06:31:00,
2013-09-15 01:36:00,57.8,51.7,30.04,South,183,0.0,1.0,80,0.00,,,0.00,Wunderground v.1.15,2013-09-15 06:36:00,
2013-09-15 01:42:00,57.8,51.7,30.04,SW,214,0.0,1.0,80,0.00,,,0.00,Wunderground v.1.15,2013-09-15 06:42:00,
2013-09-15 01:47:00,57.8,51.7,30.04,ESE,121,2.0,2.0,80,0.00,,,0.00,Wunderground v.1.15,2013-09-15 06:47:00,
2013-09-15 01:53:00,57.7,51.6,30.04,South,181,0.0,2.0,80,0.00,,,0.00,Wunderground v.1.15,2013-09-15 06:53:00,
2013-09-15 01:58:00,57.8,52.0,30.04,SSE,168,1.0,2.0,81,0.00,,,0.00,Wunderground v.1.15,2013-09-15 06:58:00,
2013-09-15 02:03:00,57.7,51.9,30.04,East,80,1.0,4.0,81,0.00,,,0.00,Wunderground v.1.15,2013-09-15 07:03:00,
2013-09-15 02:08:00,57.8,51.7,30.04,WNW,290,0.0,4.0,80,0.00,,,0.00,Wunderground v.1.15,2013-09-15 07:08:00,
2013-09-15 02:13:00,57.8,52.0,30.04,NW,314,1.0,4.0,81,0.00,,,0.00,Wunderground v.1.15,2013-09-15 07:13:00,
2013-09-15 02:18:00,58.0,52.2,30.04,SW,214,1.0,5.0,81,0.00,,,0.00,Wunderground v.1.15,2013-09-15 07:18:00,
2013-09-15 02:23:00,58.0,52.2,30.04,SSW,206,0.0,3.0,81,0.00,,,0.00,Wunderground v.1.15,2013-09-15 07:23:00,
2013-09-15 02:28:00,57.9,52.1,30.04,ENE,71,0.0,5.0,81,0.00,,,0.00,Wunderground v.1.15,2013-09-15 07:28:00,
2013-09-15 02:33:00,57.8,52.0,30.04,SE,134,0.0,3.0,81,0.00,,,0.00,Wunderground v.1.15,2013-09-15 07:33:00,
2013-09-15 02:38:00,57.7,52.2,30.04,WSW,244,0.0,3.0,82,0.00,,,0.00,Wunderground v.1.15,2013-09-15 07:38:00,
2013-09-15 02:43:00,57.6,52.1,30.04,East,91,1.0,5.0,82,0.00,,,0.00,Wunderground v.1.15,2013-09-15 07:43:00,
2013-09-15 02:48:00,57.5,52.0,30.04,South,171,1.0,5.0,82,0.00,,,0.00,Wunderground v.1.15,2013-09-15 07:48:00,
2013-09-15 02:53:00,57.5,52.0,30.04,SSW,195,0.0,2.0,82,0.00,,,0.00,Wunderground v.1.15,2013-09-15 07:53:00,
2013-09-15 02:58:00,57.5,52.4,30.04,ENE,64,0.0,4.0,83,0.00,,,0.00,Wunderground v.1.15,2013-09-15 07:58:00,
2013-09-15 03:03:00,57.6,52.5,30.04,ESE,120,0.0,3.0,83,0.00,,,0.00,Wunderground v.1.15,2013-09-15 08:03:00,
2013-09-15 03:09:00,57.6,52.5,30.04,SE,141,0.0,3.0,83,0.00,,,0.00,Wunderground v.1.15,2013-09-15 08:09:00,
2013-09-15 03:14:00,57.7,52.6,30.05,SSE,147,2.0,3.0,83,0.00,,,0.00,Wunderground v.1.15,2013-09-15 08:14:00,
2013-09-15 03:19:00,57.7,52.9,30.05,SE,140,1.0,3.0,84,0.00,,,0.00,Wunderground v.1.15,2013-09-15 08:19:00,
2013-09-15 03:24:00,57.7,52.6,30.05,NE,55,0.0,2.0,83,0.00,,,0.00,Wunderground v.1.15,2013-09-15 08:24:00,
2013-09-15 03:28:00,57.7,52.9,30.05,ESE,114,0.0,4.0,84,0.00,,,0.00,Wunderground v.1.15,2013-09-15 08:28:00,
2013-09-15 03:33:00,57.7,52.9,30.05,SE,143,2.0,3.0,84,0.00,,,0.00,Wunderground v.1.15,2013-09-15 08:33:00,
2013-09-15 03:38:00,57.6,52.8,30.05,East,82,0.0,3.0,84,0.00,,,0.00,Wunderground v.1.15,2013-09-15 08:38:00,
2013-09-15 03:43:00,57.7,52.9,30.05,SE,136,0.0,2.0,84,0.00,,,0.00,Wunderground v.1.15,2013-09-15 08:43:00,
2013-09-15 03:49:00,57.7,52.9,30.05,SE,138,0.0,5.0,84,0.00,,,0.00,Wunderground v.1.15,2013-09-15 08:49:00,
2013-09-15 03:54:00,57.7,53.2,30.05,ESE,114,0.0,1.0,85,0.00,,,0.00,Wunderground v.1.15,2013-09-15 08:54:00,
2013-09-15 03:59:00,57.7,53.2,30.06,ESE,103,0.0,5.0,85,0.00,,,0.00,Wunderground v.1.15,2013-09-15 08:59:00,
2013-09-15 04:04:00,57.6,53.1,30.06,SE,132,1.0,3.0,85,0.00,,,0.00,Wunderground v.1.15,2013-09-15 09:04:00,
2013-09-15 04:09:00,57.8,53.6,30.06,SSE,168,1.0,3.0,86,0.00,,,0.00,Wunderground v.1.15,2013-09-15 09:09:00,
2013-09-15 04:14:00,57.8,53.6,30.06,ESE,115,0.0,2.0,86,0.00,,,0.00,Wunderground v.1.15,2013-09-15 09:14:00,
2013-09-15 04:19:00,58.0,54.2,30.06,SE,132,0.0,2.0,87,0.00,,,0.00,Wunderground v.1.15,2013-09-15 09:19:00,
2013-09-15 04:24:00,58.1,53.9,30.06,SE,143,0.0,2.0,86,0.00,,,0.00,Wunderground v.1.15,2013-09-15 09:24:00,
2013-09-15 04:29:00,58.2,54.3,30.06,ESE,121,1.0,3.0,87,0.00,,,0.00,Wunderground v.1.15,2013-09-15 09:29:00,
2013-09-15 04:34:00,58.3,54.4,30.06,East,88,0.0,2.0,87,0.00,,,0.00,Wunderground v.1.15,2013-09-15 09:34:00,
2013-09-15 04:39:00,58.3,54.4,30.06,SE,143,0.0,3.0,87,0.00,,,0.00,Wunderground v.1.15,2013-09-15 09:39:00,
2013-09-15 04:44:00,58.3,54.4,30.06,SSW,205,0.0,2.0,87,0.00,,,0.00,Wunderground v.1.15,2013-09-15 09:44:00,
2013-09-15 04:49:00,58.4,54.5,30.06,ESE,102,0.0,3.0,87,0.00,,,0.00,Wunderground v.1.15,2013-09-15 09:49:00,
2013-09-15 04:54:00,58.4,54.5,30.06,SE,132,0.0,3.0,87,0.00,,,0.00,Wunderground v.1.15,2013-09-15 09:54:00,
2013-09-15 04:59:00,58.4,54.5,30.07,SE,141,0.0,3.0,87,0.00,,,0.00,Wunderground v.1.15,2013-09-15 09:59:00,
2013-09-15 05:04:00,58.4,54.5,30.07,South,175,0.0,4.0,87,0.00,,,0.00,Wunderground v.1.15,2013-09-15 10:04:00,
2013-09-15 05:09:00,58.4,54.9,30.07,East,89,1.0,4.0,88,0.00,,,0.00,Wunderground v.1.15,2013-09-15 10:09:00,
2013-09-15 05:14:00,58.4,54.9,30.07,SE,144,1.0,3.0,88,0.00,,,0.00,Wunderground v.1.15,2013-09-15 10:14:00,
2013-09-15 05:19:00,58.4,54.9,30.07,NNW,346,0.0,10.0,88,0.00,,,0.00,Wunderground v.1.15,2013-09-15 10:19:00,
2013-09-15 05:24:00,58.4,54.9,30.07,SE,134,1.0,2.0,88,0.00,,,0.00,Wunderground v.1.15,2013-09-15 10:24:00,
2013-09-15 05:29:00,58.4,54.9,30.07,SSW,202,0.0,3.0,88,0.00,,,0.00,Wunderground v.1.15,2013-09-15 10:29:00,
2013-09-15 05:35:00,58.3,54.8,30.07,NNW,346,0.0,4.0,88,0.00,,,0.00,Wunderground v.1.15,2013-09-15 10:35:00,
2013-09-15 05:39:00,58.3,54.8,30.07,South,172,1.0,4.0,88,0.00,,,0.00,Wunderground v.1.15,2013-09-15 10:39:00,
2013-09-15 05:45:00,58.3,54.8,30.07,SE,137,0.0,4.0,88,0.00,,,0.00,Wunderground v.1.15,2013-09-15 10:45:00,
2013-09-15 05:50:00,58.3,54.8,30.07,SSE,149,1.0,8.0,88,0.00,,,0.00,Wunderground v.1.15,2013-09-15 10:50:00,
2013-09-15 05:55:00,58.3,55.1,30.08,NW,308,0.0,5.0,89,0.00,,,0.00,Wunderground v.1.15,2013-09-15 10:55:00,
2013-09-15 06:00:00,58.3,55.1,30.08,ESE,107,1.0,1.0,89,0.00,,,0.00,Wunderground v.1.15,2013-09-15 11:00:00,
2013-09-15 06:05:00,58.3,55.1,30.08,ESE,123,0.0,3.0,89,0.00,,,0.00,Wunderground v.1.15,2013-09-15 11:05:00,
2013-09-15 06:10:00,58.4,55.2,30.07,NNE,12,0.0,2.0,89,0.00,,,0.00,Wunderground v.1.15,2013-09-15 11:10:00,
2013-09-15 06:15:00,58.3,55.1,30.08,East,96,0.0,2.0,89,0.00,,,0.00,Wunderground v.1.15,2013-09-15 11:15:00,
2013-09-15 06:20:00,58.3,55.1,30.08,ENE,70,0.0,1.0,89,0.00,,,0.00,Wunderground v.1.15,2013-09-15 11:20:00,
2013-09-15 06:25:00,58.2,55.0,30.08,SSE,163,0.0,4.0,89,0.00,,,0.00,Wunderground v.1.15,2013-09-15 11:25:00,
2013-09-15 06:30:00,58.2,55.3,30.08,NE,37,0.0,1.0,90,0.00,,,0.00,Wunderground v.1.15,2013-09-15 11:30:00,
2013-09-15 06:35:00,58.2,55.3,30.08,NNE,30,0.0,3.0,90,0.00,,,0.00,Wunderground v.1.15,2013-09-15 11:35:00,
2013-09-15 06:40:00,58.1,55.2,30.08,South,190,0.0,4.0,90,0.00,,,0.00,Wunderground v.1.15,2013-09-15 11:40:00,
2013-09-15 06:45:00,58.2,55.3,30.08,SE,130,1.0,4.0,90,0.00,,,0.00,Wunderground v.1.15,2013-09-15 11:45:00,
2013-09-15 06:50:00,58.3,55.4,30.09,East,96,0.0,4.0,90,0.00,,,0.00,Wunderground v.1.15,2013-09-15 11:50:00,
2013-09-15 06:55:00,58.3,55.4,30.09,SE,132,2.0,4.0,90,0.00,,,0.00,Wunderground v.1.15,2013-09-15 11:55:00,
2013-09-15 07:00:00,58.5,55.6,30.09,SSE,155,0.0,2.0,90,0.00,,,0.00,Wunderground v.1.15,2013-09-15 12:00:00,
2013-09-15 07:05:00,58.8,55.9,30.09,East,84,0.0,5.0,90,0.00,,,0.00,Wunderground v.1.15,2013-09-15 12:05:00,
2013-09-15 07:10:00,59.0,56.1,30.09,NW,317,0.0,2.0,90,0.00,,,0.00,Wunderground v.1.15,2013-09-15 12:10:00,
2013-09-15 07:15:00,59.3,56.4,30.09,SE,133,1.0,4.0,90,0.00,,,0.00,Wunderground v.1.15,2013-09-15 12:15:00,
2013-09-15 07:20:00,59.4,56.5,30.09,North,355,1.0,1.0,90,0.00,,,0.00,Wunderground v.1.15,2013-09-15 12:20:00,
2013-09-15 07:25:00,59.4,56.5,30.09,SW,215,0.0,3.0,90,0.00,,,0.00,Wunderground v.1.15,2013-09-15 12:25:00,
2013-09-15 07:31:00,59.4,56.5,30.09,SE,137,0.0,2.0,90,0.00,,,0.00,Wunderground v.1.15,2013-09-15 12:31:00,
2013-09-15 07:36:00,59.5,56.6,30.09,ESE,122,0.0,8.0,90,0.00,,,0.00,Wunderground v.1.15,2013-09-15 12:36:00,
2013-09-15 07:41:00,59.6,56.7,30.09,SW,224,1.0,1.0,90,0.00,,,0.00,Wunderground v.1.15,2013-09-15 12:41:00,
2013-09-15 07:46:00,59.7,56.8,30.09,West,277,0.0,7.0,90,0.00,,,0.00,Wunderground v.1.15,2013-09-15 12:46:00,
2013-09-15 07:51:00,59.8,56.9,30.09,SW,231,1.0,3.0,90,0.00,,,0.00,Wunderground v.1.15,2013-09-15 12:51:00,
2013-09-15 07:56:00,59.8,56.9,30.09,NNE,13,1.0,5.0,90,0.00,,,0.00,Wunderground v.1.15,2013-09-15 12:56:00,
2013-09-15 08:01:00,59.9,57.0,30.09,SSW,209,2.0,3.0,90,0.00,,,0.00,Wunderground v.1.15,2013-09-15 13:01:00,
2013-09-15 08:06:00,60.2,57.3,30.09,South,182,0.0,7.0,90,0.00,,,0.00,Wunderground v.1.15,2013-09-15 13:06:00,
2013-09-15 08:11:00,60.5,57.6,30.09,ESE,119,1.0,2.0,90,0.00,,,0.00,Wunderground v.1.15,2013-09-15 13:11:00,
2013-09-15 08:16:00,60.6,57.7,30.09,East,96,0.0,4.0,90,0.00,,,0.00,Wunderground v.1.15,2013-09-15 13:16:00,
2013-09-15 08:21:00,60.6,57.3,30.09,South,191,0.0,1.0,89,0.00,,,0.00,Wunderground v.1.15,2013-09-15 13:21:00,
2013-09-15 08:26:00,60.6,57.7,30.09,South,185,1.0,8.0,90,0.00,,,0.00,Wunderground v.1.15,2013-09-15 13:26:00,
2013-09-15 08:31:00,60.9,57.6,30.10,East,85,1.0,3.0,89,0.00,,,0.00,Wunderground v.1.15,2013-09-15 13:31:00,
2013-09-15 08:36:00,61.2,58.2,30.10,SW,235,0.0,4.0,90,0.00,,,0.00,Wunderground v.1.15,2013-09-15 13:36:00,
2013-09-15 08:41:00,61.5,58.2,30.10,South,173,3.0,6.0,89,0.00,,,0.00,Wunderground v.1.15,2013-09-15 13:41:00,
2013-09-15 08:46:00,61.8,58.2,30.10,SSE,160,1.0,6.0,88,0.00,,,0.00,Wunderground v.1.15,2013-09-15 13:46:00,
2013-09-15 08:52:00,61.8,58.2,30.10,East,82,0.0,5.0,88,0.00,,,0.00,Wunderground v.1.15,2013-09-15 13:52:00,
2013-09-15 08:57:00,62.2,58.6,30.10,SW,232,3.0,7.0,88,0.00,,,0.00,Wunderground v.1.15,2013-09-15 13:57:00,
2013-09-15 09:02:00,62.5,58.9,30.10,SSE,154,1.0,5.0,88,0.00,,,0.00,Wunderground v.1.15,2013-09-15 14:02:00,
2013-09-15 09:07:00,62.7,59.1,30.10,SSE,150,0.0,5.0,88,0.00,,,0.00,Wunderground v.1.15,2013-09-15 14:07:00,
2013-09-15 09:12:00,62.9,59.3,30.11,WSW,257,1.0,1.0,88,0.00,,,0.00,Wunderground v.1.15,2013-09-15 14:12:00,
2013-09-15 09:17:00,63.1,59.5,30.11,South,182,0.0,2.0,88,0.00,,,0.00,Wunderground v.1.15,2013-09-15 14:17:00,
2013-09-15 09:22:00,63.3,59.7,30.11,South,187,2.0,2.0,88,0.00,,,0.00,Wunderground v.1.15,2013-09-15 14:22:00,
2013-09-15 09:27:00,63.4,59.5,30.11,SE,128,0.0,2.0,87,0.00,,,0.00,Wunderground v.1.15,2013-09-15 14:27:00,
2013-09-15 09:32:00,63.6,60.0,30.11,SSE,147,1.0,4.0,88,0.00,,,0.00,Wunderground v.1.15,2013-09-15 14:32:00,
2013-09-15 09:37:00,63.8,60.2,30.11,SSE,158,0.0,4.0,88,0.00,,,0.00,Wunderground v.1.15,2013-09-15 14:37:00,
2013-09-15 09:42:00,63.8,59.9,30.11,SE,124,0.0,5.0,87,0.00,,,0.00,Wunderground v.1.15,2013-09-15 14:42:00,
2013-09-15 09:47:00,63.8,60.2,30.11,East,98,0.0,7.0,88,0.00,,,0.00,Wunderground v.1.15,2013-09-15 14:47:00,
2013-09-15 09:52:00,63.9,60.3,30.11,ESE,104,5.0,5.0,88,0.00,,,0.00,Wunderground v.1.15,2013-09-15 14:52:00,
2013-09-15 09:57:00,64.1,60.5,30.11,ESE,110,3.0,8.0,88,0.00,,,0.00,Wunderground v.1.15,2013-09-15 14:57:00,
2013-09-15 10:03:00,64.2,60.6,30.11,SE,136,4.0,5.0,88,0.00,,,0.00,Wunderground v.1.15,2013-09-15 15:03:00,
2013-09-15 10:08:00,64.4,60.8,30.11,East,91,5.0,6.0,88,0.00,,,0.00,Wunderground v.1.15,2013-09-15 15:08:00,
2013-09-15 10:13:00,64.5,60.9,30.11,SSE,159,0.0,6.0,88,0.00,,,0.00,Wunderground v.1.15,2013-09-15 15:13:00,
2013-09-15 10:18:00,64.6,61.0,30.11,ESE,109,0.0,7.0,88,0.00,,,0.00,Wunderground v.1.15,2013-09-15 15:18:00,
2013-09-15 10:23:00,64.7,61.1,30.11,ESE,123,3.0,3.0,88,0.00,,,0.00,Wunderground v.1.15,2013-09-15 15:23:00,
2013-09-15 10:28:00,64.9,60.9,30.11,East,97,0.0,5.0,87,0.00,,,0.00,Wunderground v.1.15,2013-09-15 15:28:00,
2013-09-15 10:33:00,65.3,61.3,30.11,SE,142,0.0,3.0,87,0.00,,,0.00,Wunderground v.1.15,2013-09-15 15:33:00,
2013-09-15 10:38:00,65.7,61.4,30.11,SSW,201,0.0,4.0,86,0.00,,,0.00,Wunderground v.1.15,2013-09-15 15:38:00,
2013-09-15 10:43:00,65.8,61.5,30.11,SE,133,1.0,5.0,86,0.00,,,0.00,Wunderground v.1.15,2013-09-15 15:43:00,
2013-09-15 10:48:00,65.8,61.5,30.11,South,171,0.0,5.0,86,0.00,,,0.00,Wunderground v.1.15,2013-09-15 15:48:00,
2013-09-15 10:53:00,65.9,61.6,30.11,SE,132,2.0,7.0,86,0.00,,,0.00,Wunderground v.1.15,2013-09-15 15:53:00,
2013-09-15 10:58:00,66.0,61.7,30.11,ESE,121,3.0,7.0,86,0.00,,,0.00,Wunderground v.1.15,2013-09-15 15:58:00,
2013-09-15 11:03:00,66.1,61.8,30.11,SSE,156,0.0,3.0,86,0.00,,,0.00,Wunderground v.1.15,2013-09-15 16:03:00,
2013-09-15 11:08:00,66.2,61.6,30.11,ESE,105,3.0,4.0,85,0.00,,,0.00,Wunderground v.1.15,2013-09-15 16:08:00,
2013-09-15 11:13:00,66.3,62.0,30.10,SE,143,0.0,7.0,86,0.00,,,0.00,Wunderground v.1.15,2013-09-15 16:13:00,
2013-09-15 11:18:00,66.7,62.0,30.11,WNW,284,1.0,7.0,85,0.00,,,0.00,Wunderground v.1.15,2013-09-15 16:18:00,
2013-09-15 11:23:00,67.1,62.1,30.11,SSW,198,1.0,4.0,84,0.00,,,0.00,Wunderground v.1.15,2013-09-15 16:23:00,
2013-09-15 11:28:00,67.1,62.1,30.11,WNW,295,0.0,4.0,84,0.00,,,0.00,Wunderground v.1.15,2013-09-15 16:28:00,
2013-09-15 11:33:00,67.2,62.2,30.10,South,171,0.0,3.0,84,0.00,,,0.00,Wunderground v.1.15,2013-09-15 16:33:00,
2013-09-15 11:38:00,67.7,62.3,30.10,ENE,71,0.0,8.0,83,0.00,,,0.00,Wunderground v.1.15,2013-09-15 16:38:00,
2013-09-15 11:43:00,67.9,61.9,30.10,WSW,257,2.0,6.0,81,0.00,,,0.00,Wunderground v.1.15,2013-09-15 16:43:00,
2013-09-15 11:48:00,68.2,62.5,30.10,ESE,114,0.0,6.0,82,0.00,,,0.00,Wunderground v.1.15,2013-09-15 16:48:00,
2013-09-15 11:53:00,68.6,62.9,30.10,SE,128,1.0,4.0,82,0.00,,,0.00,Wunderground v.1.15,2013-09-15 16:53:00,
2013-09-15 11:58:00,69.1,62.7,30.10,NW,318,0.0,6.0,80,0.00,,,0.00,Wunderground v.1.15,2013-09-15 16:58:00,
2013-09-15 12:03:00,69.7,62.9,30.10,SW,224,1.0,7.0,79,0.00,,,0.00,Wunderground v.1.15,2013-09-15 17:03:00,
2013-09-15 12:08:00,70.2,62.6,30.10,SSW,205,3.0,7.0,77,0.00,,,0.00,Wunderground v.1.15,2013-09-15 17:08:00,
2013-09-15 12:13:00,70.2,62.6,30.10,NNE,20,0.0,8.0,77,0.00,,,0.00,Wunderground v.1.15,2013-09-15 17:13:00,
2013-09-15 12:18:00,70.3,62.7,30.10,SE,128,0.0,8.0,77,0.00,,,0.00,Wunderground v.1.15,2013-09-15 17:18:00,
2013-09-15 12:23:00,70.9,63.0,30.09,NE,41,0.0,5.0,76,0.00,,,0.00,Wunderground v.1.15,2013-09-15 17:23:00,
2013-09-15 12:28:00,71.7,63.0,30.09,ENE,74,0.0,5.0,74,0.00,,,0.00,Wunderground v.1.15,2013-09-15 17:28:00,
2013-09-15 12:33:00,72.1,61.8,30.10,SE,144,2.0,4.0,70,0.00,,,0.00,Wunderground v.1.15,2013-09-15 17:33:00,
2013-09-15 12:38:00,72.1,61.8,30.09,SE,125,1.0,7.0,70,0.00,,,0.00,Wunderground v.1.15,2013-09-15 17:38:00,
2013-09-15 12:43:00,72.1,61.4,30.09,South,185,1.0,8.0,69,0.00,,,0.00,Wunderground v.1.15,2013-09-15 17:43:00,
2013-09-15 12:48:00,72.5,60.9,30.09,SSE,167,1.0,8.0,67,0.00,,,0.00,Wunderground v.1.15,2013-09-15 17:48:00,
2013-09-15 12:53:00,72.6,61.4,30.09,NNE,31,2.0,3.0,68,0.00,,,0.00,Wunderground v.1.15,2013-09-15 17:53:00,
2013-09-15 12:58:00,72.2,62.3,30.09,SSE,150,0.0,5.0,71,0.00,,,0.00,Wunderground v.1.15,2013-09-15 17:58:00,
2013-09-15 13:03:00,72.3,62.8,30.09,WNW,283,1.0,3.0,72,0.00,,,0.00,Wunderground v.1.15,2013-09-15 18:03:00,
2013-09-15 13:08:00,72.6,62.7,30.09,WNW,298,0.0,8.0,71,0.00,,,0.00,Wunderground v.1.15,2013-09-15 18:08:00,
2013-09-15 13:13:00,73.0,62.2,30.09,SW,215,0.0,5.0,69,0.00,,,0.00,Wunderground v.1.15,2013-09-15 18:13:00,
2013-09-15 13:18:00,73.0,61.4,30.08,SSE,159,1.0,5.0,67,0.00,,,0.00,Wunderground v.1.15,2013-09-15 18:18:00,
2013-09-15 13:23:00,72.9,61.7,30.08,NE,34,0.0,4.0,68,0.00,,,0.00,Wunderground v.1.15,2013-09-15 18:23:00,
2013-09-15 13:29:00,73.3,60.8,30.08,SSE,159,0.0,6.0,65,0.00,,,0.00,Wunderground v.1.15,2013-09-15 18:29:00,
2013-09-15 13:34:00,73.5,61.4,30.08,WSW,248,3.0,5.0,66,0.00,,,0.00,Wunderground v.1.15,2013-09-15 18:34:00,
2013-09-15 13:39:00,73.5,62.3,30.08,SE,144,3.0,5.0,68,0.00,,,0.00,Wunderground v.1.15,2013-09-15 18:39:00,
2013-09-15 13:44:00,73.5,61.4,30.08,SSE,159,0.0,5.0,66,0.00,,,0.00,Wunderground v.1.15,2013-09-15 18:44:00,
2013-09-15 13:49:00,73.6,61.5,30.08,North,360,0.0,5.0,66,0.00,,,0.00,Wunderground v.1.15,2013-09-15 18:49:00,
2013-09-15 13:54:00,73.3,60.8,30.08,SSW,194,0.0,5.0,65,0.00,,,0.00,Wunderground v.1.15,2013-09-15 18:54:00,
2013-09-15 13:59:00,73.5,62.3,30.08,ENE,61,1.0,5.0,68,0.00,,,0.00,Wunderground v.1.15,2013-09-15 18:59:00,
2013-09-15 14:04:00,73.7,62.1,30.08,SSE,167,0.0,5.0,67,0.00,,,0.00,Wunderground v.1.15,2013-09-15 19:04:00,
2013-09-15 14:09:00,73.8,61.3,30.07,SE,140,0.0,5.0,65,0.00,,,0.00,Wunderground v.1.15,2013-09-15 19:09:00,
2013-09-15 14:14:00,73.7,62.5,30.07,SE,143,2.0,3.0,68,0.00,,,0.00,Wunderground v.1.15,2013-09-15 19:14:00,
2013-09-15 14:18:00,73.7,62.5,30.07,SE,131,2.0,3.0,68,0.00,,,0.00,Wunderground v.1.15,2013-09-15 19:18:00,
2013-09-15 14:23:00,73.9,62.2,30.07,SE,130,1.0,7.0,67,0.00,,,0.00,Wunderground v.1.15,2013-09-15 19:23:00,
2013-09-15 14:28:00,74.2,62.5,30.07,SSW,196,2.0,7.0,67,0.00,,,0.00,Wunderground v.1.15,2013-09-15 19:28:00,
2013-09-15 14:33:00,74.3,61.3,30.06,West,273,2.0,3.0,64,0.00,,,0.00,Wunderground v.1.15,2013-09-15 19:33:00,
2013-09-15 14:38:00,74.2,62.1,30.06,WSW,255,0.0,3.0,66,0.00,,,0.00,Wunderground v.1.15,2013-09-15 19:38:00,
2013-09-15 14:43:00,74.2,61.7,30.06,NE,55,0.0,2.0,65,0.00,,,0.00,Wunderground v.1.15,2013-09-15 19:43:00,
2013-09-15 14:48:00,74.1,61.1,30.06,SSE,163,1.0,4.0,64,0.00,,,0.00,Wunderground v.1.15,2013-09-15 19:48:00,
2013-09-15 14:53:00,74.0,62.3,30.06,West,262,2.0,2.0,67,0.00,,,0.00,Wunderground v.1.15,2013-09-15 19:53:00,
2013-09-15 14:58:00,74.0,62.3,30.06,ESE,119,0.0,6.0,67,0.00,,,0.00,Wunderground v.1.15,2013-09-15 19:58:00,
2013-09-15 15:03:00,73.8,60.4,30.07,SSW,201,3.0,5.0,63,0.00,,,0.00,Wunderground v.1.15,2013-09-15 20:03:00,
2013-09-15 15:08:00,73.7,60.3,30.06,South,181,0.0,5.0,63,0.00,,,0.00,Wunderground v.1.15,2013-09-15 20:08:00,
2013-09-15 15:13:00,73.5,60.1,30.06,SE,126,0.0,2.0,63,0.00,,,0.00,Wunderground v.1.15,2013-09-15 20:13:00,
2013-09-15 15:18:00,73.5,59.7,30.07,SSW,213,0.0,4.0,62,0.00,,,0.00,Wunderground v.1.15,2013-09-15 20:18:00,
2013-09-15 15:23:00,73.4,60.0,30.06,SW,217,0.0,1.0,63,0.00,,,0.00,Wunderground v.1.15,2013-09-15 20:23:00,
2013-09-15 15:28:00,73.6,61.1,30.07,SW,217,0.0,2.0,65,0.00,,,0.00,Wunderground v.1.15,2013-09-15 20:28:00,
2013-09-15 15:33:00,73.9,61.8,30.06,SW,217,0.0,1.0,66,0.00,,,0.00,Wunderground v.1.15,2013-09-15 20:33:00,
2013-09-15 15:38:00,74.0,61.5,30.06,SE,134,0.0,4.0,65,0.00,,,0.00,Wunderground v.1.15,2013-09-15 20:38:00,
2013-09-15 15:44:00,74.2,61.2,30.06,West,273,0.0,3.0,64,0.00,,,0.00,Wunderground v.1.15,2013-09-15 20:44:00,
2013-09-15 15:49:00,74.4,61.0,30.06,SSW,192,0.0,3.0,63,0.00,,,0.00,Wunderground v.1.15,2013-09-15 20:49:00,
2013-09-15 15:54:00,74.5,62.0,30.06,ESE,121,0.0,2.0,65,0.00,,,0.00,Wunderground v.1.15,2013-09-15 20:54:00,
2013-09-15 15:59:00,74.6,62.5,30.06,SSE,167,0.0,2.0,66,0.00,,,0.00,Wunderground v.1.15,2013-09-15 20:59:00,
2013-09-15 16:04:00,74.7,63.0,30.06,South,191,1.0,3.0,67,0.00,,,0.00,Wunderground v.1.15,2013-09-15 21:04:00,
2013-09-15 16:09:00,74.7,62.6,30.06,South,182,0.0,3.0,66,0.00,,,0.00,Wunderground v.1.15,2013-09-15 21:09:00,
2013-09-15 16:14:00,74.7,62.6,30.06,South,182,0.0,1.0,66,0.00,,,0.00,Wunderground v.1.15,2013-09-15 21:14:00,
2013-09-15 16:19:00,74.9,62.8,30.06,NNE,28,0.0,2.0,66,0.00,,,0.00,Wunderground v.1.15,2013-09-15 21:19:00,
2013-09-15 16:24:00,75.4,63.7,30.07,WNW,288,0.0,2.0,67,0.00,,,0.00,Wunderground v.1.15,2013-09-15 21:24:00,
2013-09-15 16:29:00,75.6,63.4,30.07,NW,315,0.0,3.0,66,0.00,,,0.00,Wunderground v.1.15,2013-09-15 21:29:00,
2013-09-15 16:34:00,75.5,62.9,30.07,NW,315,0.0,1.0,65,0.00,,,0.00,Wunderground v.1.15,2013-09-15 21:34:00,
2013-09-15 16:39:00,75.3,61.8,30.07,NW,315,0.0,3.0,63,0.00,,,0.00,Wunderground v.1.15,2013-09-15 21:39:00,
2013-09-15 16:44:00,75.1,63.8,30.06,NW,312,0.0,1.0,68,0.00,,,0.00,Wunderground v.1.15,2013-09-15 21:44:00,
2013-09-15 16:50:00,74.8,62.7,30.06,SSW,200,0.0,2.0,66,0.00,,,0.00,Wunderground v.1.15,2013-09-15 21:50:00,
2013-09-15 16:55:00,74.9,62.8,30.06,SSW,199,0.0,2.0,66,0.00,,,0.00,Wunderground v.1.15,2013-09-15 21:55:00,
2013-09-15 17:00:00,74.9,63.2,30.06,SSW,199,0.0,2.0,67,0.00,,,0.00,Wunderground v.1.15,2013-09-15 22:00:00,
2013-09-15 17:05:00,74.8,63.5,30.06,SSW,199,0.0,0.0,68,0.00,,,0.00,Wunderground v.1.15,2013-09-15 22:05:00,
2013-09-15 17:10:00,74.6,63.8,30.06,SSW,199,0.0,0.0,69,0.00,,,0.00,Wunderground v.1.15,2013-09-15 22:10:00,
2013-09-15 17:15:00,74.2,63.4,30.06,SSW,199,0.0,0.0,69,0.00,,,0.00,Wunderground v.1.15,2013-09-15 22:15:00,
2013-09-15 17:20:00,73.7,62.9,30.06,SE,128,1.0,2.0,69,0.00,,,0.00,Wunderground v.1.15,2013-09-15 22:20:00,
2013-09-15 17:25:00,73.2,63.2,30.06,SE,128,0.0,1.0,71,0.00,,,0.00,Wunderground v.1.15,2013-09-15 22:25:00,
2013-09-15 17:30:00,72.8,62.8,30.06,SE,128,0.0,1.0,71,0.00,,,0.00,Wunderground v.1.15,2013-09-15 22:30:00,
2013-09-15 17:35:00,72.2,62.7,30.06,SE,128,0.0,2.0,72,0.00,,,0.00,Wunderground v.1.15,2013-09-15 22:35:00,
2013-09-15 17:40:00,71.9,62.8,30.06,SE,126,0.0,2.0,73,0.00,,,0.00,Wunderground v.1.15,2013-09-15 22:40:00,
2013-09-15 17:45:00,71.9,63.5,30.06,ESE,119,0.0,2.0,75,0.00,,,0.00,Wunderground v.1.15,2013-09-15 22:45:00,
2013-09-15 17:50:00,72.4,63.6,30.06,ESE,119,0.0,0.0,74,0.00,,,0.00,Wunderground v.1.15,2013-09-15 22:50:00,
2013-09-15 17:55:00,72.8,63.6,30.06,ESE,120,0.0,2.0,73,0.00,,,0.00,Wunderground v.1.15,2013-09-15 22:55:00,
2013-09-15 18:00:00,73.3,63.3,30.06,ESE,120,0.0,0.0,71,0.00,,,0.00,Wunderground v.1.15,2013-09-15 23:00:00,
2013-09-15 18:05:00,73.7,63.3,30.06,ESE,120,0.0,1.0,70,0.00,,,0.00,Wunderground v.1.15,2013-09-15 23:05:00,
2013-09-15 18:10:00,74.0,63.6,30.06,ESE,120,0.0,0.0,70,0.00,,,0.00,Wunderground v.1.15,2013-09-15 23:10:00,
2013-09-15 18:15:00,74.1,63.7,30.06,ESE,120,0.0,1.0,70,0.00,,,0.00,Wunderground v.1.15,2013-09-15 23:15:00,
2013-09-15 18:20:00,73.9,63.9,30.06,ESE,120,0.0,1.0,71,0.00,,,0.00,Wunderground v.1.15,2013-09-15 23:20:00,
2013-09-15 18:25:00,73.3,63.3,30.06,ESE,120,0.0,1.0,71,0.00,,,0.00,Wunderground v.1.15,2013-09-15 23:25:00,
2013-09-15 18:30:00,72.5,63.0,30.06,ESE,121,0.0,2.0,72,0.00,,,0.00,Wunderground v.1.15,2013-09-15 23:30:00,
2013-09-15 18:35:00,71.7,62.6,30.06,SE,126,0.0,2.0,73,0.00,,,0.00,Wunderground v.1.15,2013-09-15 23:35:00,
2013-09-15 18:40:00,70.9,61.8,30.06,SE,130,1.0,2.0,73,0.00,,,0.00,Wunderground v.1.15,2013-09-15 23:40:00,
2013-09-15 18:45:00,70.3,61.6,30.06,SE,133,2.0,4.0,74,0.00,,,0.00,Wunderground v.1.15,2013-09-15 23:45:00,
2013-09-15 18:50:00,69.6,61.3,30.06,SE,129,1.0,2.0,75,0.00,,,0.00,Wunderground v.1.15,2013-09-15 23:50:00,
2013-09-15 18:55:00,69.0,61.1,30.06,SE,125,0.0,3.0,76,0.00,,,0.00,Wunderground v.1.15,2013-09-15 23:55:00,
2013-09-15 19:00:00,68.8,60.9,30.06,SE,136,2.0,2.0,76,0.00,,,0.00,Wunderground v.1.15,2013-09-16 00:00:00,
2013-09-15 19:05:00,68.6,60.7,30.06,SE,128,0.0,3.0,76,0.00,,,0.00,Wunderground v.1.15,2013-09-16 00:05:00,
2013-09-15 19:11:00,68.5,60.6,30.06,SE,136,0.0,1.0,76,0.00,,,0.00,Wunderground v.1.15,2013-09-16 00:11:00,
2013-09-15 19:16:00,68.6,60.4,30.06,SW,217,3.0,3.0,75,0.00,,,0.00,Wunderground v.1.15,2013-09-16 00:16:00,
2013-09-15 19:21:00,69.1,60.8,30.06,SW,220,3.0,4.0,75,0.00,,,0.00,Wunderground v.1.15,2013-09-16 00:21:00,
2013-09-15 19:26:00,69.5,60.8,30.06,SW,220,1.0,4.0,74,0.00,,,0.00,Wunderground v.1.15,2013-09-16 00:26:00,
2013-09-15 19:31:00,69.7,60.7,30.06,SW,220,3.0,3.0,73,0.00,,,0.00,Wunderground v.1.15,2013-09-16 00:31:00,
2013-09-15 19:36:00,69.8,60.8,30.07,SSW,201,1.0,4.0,73,0.00,,,0.00,Wunderground v.1.15,2013-09-16 00:36:00,
2013-09-15 19:41:00,69.8,60.8,30.06,SSW,200,3.0,3.0,73,0.00,,,0.00,Wunderground v.1.15,2013-09-16 00:41:00,
2013-09-15 19:46:00,69.6,60.9,30.06,SE,136,2.0,3.0,74,0.00,,,0.00,Wunderground v.1.15,2013-09-16 00:46:00,
2013-09-15 19:51:00,69.2,60.9,30.06,SE,127,2.0,3.0,75,0.00,,,0.00,Wunderground v.1.15,2013-09-16 00:51:00,
2013-09-15 19:56:00,68.7,60.5,30.06,SE,134,1.0,3.0,75,0.00,,,0.00,Wunderground v.1.15,2013-09-16 00:56:00,
2013-09-15 20:01:00,68.3,60.4,30.06,SSE,155,0.0,2.0,76,0.00,,,0.00,Wunderground v.1.15,2013-09-16 01:01:00,
2013-09-15 20:06:00,68.1,60.6,30.07,SSE,168,1.0,3.0,77,0.00,,,0.00,Wunderground v.1.15,2013-09-16 01:06:00,
2013-09-15 20:11:00,68.1,60.2,30.07,SSW,198,1.0,3.0,76,0.00,,,0.00,Wunderground v.1.15,2013-09-16 01:11:00,
2013-09-15 20:17:00,68.3,60.4,30.07,SW,216,2.0,3.0,76,0.00,,,0.00,Wunderground v.1.15,2013-09-16 01:17:00,
2013-09-15 20:22:00,68.8,60.6,30.07,SW,219,1.0,2.0,75,0.00,,,0.00,Wunderground v.1.15,2013-09-16 01:22:00,
2013-09-15 20:27:00,69.0,60.7,30.07,SSW,200,3.0,3.0,75,0.00,,,0.00,Wunderground v.1.15,2013-09-16 01:27:00,
2013-09-15 20:32:00,68.9,60.6,30.07,SSW,196,0.0,1.0,75,0.00,,,0.00,Wunderground v.1.15,2013-09-16 01:32:00,
2013-09-15 20:37:00,68.7,60.5,30.07,SSE,168,1.0,3.0,75,0.00,,,0.00,Wunderground v.1.15,2013-09-16 01:37:00,
2013-09-15 20:42:00,68.6,60.4,30.07,SSE,166,1.0,3.0,75,0.00,,,0.00,Wunderground v.1.15,2013-09-16 01:42:00,
2013-09-15 20:47:00,68.4,60.2,30.07,South,191,1.0,3.0,75,0.00,,,0.00,Wunderground v.1.15,2013-09-16 01:47:00,
2013-09-15 20:52:00,68.4,60.2,30.07,SSW,202,0.0,3.0,75,0.00,,,0.00,Wunderground v.1.15,2013-09-16 01:52:00,
2013-09-15 20:57:00,68.4,60.2,30.07,SW,224,0.0,3.0,75,0.00,,,0.00,Wunderground v.1.15,2013-09-16 01:57:00,
2013-09-15 21:02:00,68.4,59.8,30.07,South,178,1.0,2.0,74,0.00,,,0.00,Wunderground v.1.15,2013-09-16 02:02:00,
2013-09-15 21:07:00,68.4,59.8,30.07,SW,229,2.0,3.0,74,0.00,,,0.00,Wunderground v.1.15,2013-09-16 02:07:00,
2013-09-15 21:12:00,68.5,59.9,30.07,SSE,161,2.0,3.0,74,0.00,,,0.00,Wunderground v.1.15,2013-09-16 02:12:00,
2013-09-15 21:17:00,68.6,60.0,30.07,SSW,198,1.0,4.0,74,0.00,,,0.00,Wunderground v.1.15,2013-09-16 02:17:00,
2013-09-15 21:22:00,68.5,59.5,30.07,SW,223,3.0,3.0,73,0.00,,,0.00,Wunderground v.1.15,2013-09-16 02:22:00,
2013-09-15 21:27:00,68.7,59.7,30.07,SW,223,1.0,4.0,73,0.00,,,0.00,Wunderground v.1.15,2013-09-16 02:27:00,
2013-09-15 21:32:00,68.9,59.9,30.08,SW,225,2.0,3.0,73,0.00,,,0.00,Wunderground v.1.15,2013-09-16 02:32:00,
2013-09-15 21:37:00,69.0,60.0,30.08,SW,227,3.0,3.0,73,0.00,,,0.00,Wunderground v.1.15,2013-09-16 02:37:00,
2013-09-15 21:42:00,69.1,60.1,30.08,SW,225,0.0,3.0,73,0.00,,,0.00,Wunderground v.1.15,2013-09-16 02:42:00,
2013-09-15 21:47:00,69.1,60.1,30.08,SW,219,1.0,4.0,73,0.00,,,0.00,Wunderground v.1.15,2013-09-16 02:47:00,
2013-09-15 21:52:00,69.0,60.4,30.08,SW,226,3.0,5.0,74,0.00,,,0.00,Wunderground v.1.15,2013-09-16 02:52:00,
2013-09-15 21:57:00,69.1,60.1,30.08,SW,230,2.0,5.0,73,0.00,,,0.00,Wunderground v.1.15,2013-09-16 02:57:00,
2013-09-15 22:02:00,68.9,60.3,30.08,SW,220,3.0,3.0,74,0.00,,,0.00,Wunderground v.1.15,2013-09-16 03:02:00,
2013-09-15 22:07:00,68.8,60.2,30.08,SW,229,2.0,5.0,74,0.00,,,0.00,Wunderground v.1.15,2013-09-16 03:07:00,
2013-09-15 22:12:00,68.8,60.2,30.08,SW,230,4.0,6.0,74,0.00,,,0.00,Wunderground v.1.15,2013-09-16 03:12:00,
2013-09-15 22:17:00,68.8,60.2,30.08,SW,229,1.0,6.0,74,0.00,,,0.00,Wunderground v.1.15,2013-09-16 03:17:00,
2013-09-15 22:22:00,68.7,60.5,30.08,SW,216,0.0,4.0,75,0.00,,,0.00,Wunderground v.1.15,2013-09-16 03:22:00,
2013-09-15 22:27:00,68.6,60.4,30.08,South,174,0.0,5.0,75,0.00,,,0.00,Wunderground v.1.15,2013-09-16 03:27:00,
2013-09-15 22:32:00,68.3,60.1,30.08,South,189,2.0,5.0,75,0.00,,,0.00,Wunderground v.1.15,2013-09-16 03:32:00,
2013-09-15 22:37:00,68.2,60.0,30.08,SW,217,3.0,5.0,75,0.00,,,0.00,Wunderground v.1.15,2013-09-16 03:37:00,
2013-09-15 22:42:00,68.3,60.1,30.08,SW,216,3.0,5.0,75,0.00,,,0.00,Wunderground v.1.15,2013-09-16 03:42:00,
2013-09-15 22:47:00,68.3,60.1,30.08,SW,216,1.0,5.0,75,0.00,,,0.00,Wunderground v.1.15,2013-09-16 03:47:00,
2013-09-15 22:52:00,68.3,60.1,30.07,SW,221,4.0,5.0,75,0.00,,,0.00,Wunderground v.1.15,2013-09-16 03:52:00,
2013-09-15 22:57:00,68.3,59.7,30.07,SSE,164,0.0,6.0,74,0.00,,,0.00,Wunderground v.1.15,2013-09-16 03:57:00,
2013-09-15 23:01:00,68.3,59.7,30.07,SSW,205,4.0,4.0,74,0.00,,,0.00,Wunderground v.1.15,2013-09-16 04:01:00,
2013-09-15 23:02:00,68.3,59.7,30.07,SSW,211,4.0,6.0,74,0.00,,,0.00,Wunderground v.1.15,2013-09-16 04:02:00,
2013-09-15 23:07:00,68.4,59.8,30.07,SW,226,4.0,6.0,74,0.00,,,0.00,Wunderground v.1.15,2013-09-16 04:07:00,
2013-09-15 23:13:00,68.3,59.7,30.07,SW,223,4.0,6.0,74,0.00,,,0.00,Wunderground v.1.15,2013-09-16 04:13:00,
2013-09-15 23:18:00,68.3,59.7,30.07,West,262,4.0,7.0,74,0.00,,,0.00,Wunderground v.1.15,2013-09-16 04:18:00,
2013-09-15 23:23:00,68.3,59.3,30.08,SW,229,4.0,7.0,73,0.00,,,0.00,Wunderground v.1.15,2013-09-16 04:23:00,
2013-09-15 23:28:00,68.3,59.3,30.07,SW,226,1.0,7.0,73,0.00,,,0.00,Wunderground v.1.15,2013-09-16 04:28:00,
2013-09-15 23:33:00,68.3,58.9,30.07,South,184,3.0,6.0,72,0.00,,,0.00,Wunderground v.1.15,2013-09-16 04:33:00,
2013-09-15 23:38:00,68.3,58.5,30.08,SW,215,5.0,7.0,71,0.00,,,0.00,Wunderground v.1.15,2013-09-16 04:38:00,
2013-09-15 23:43:00,68.2,58.4,30.07,SSW,198,1.0,7.0,71,0.00,,,0.00,Wunderground v.1.15,2013-09-16 04:43:00,
2013-09-15 23:48:00,68.1,58.3,30.07,SW,219,1.0,7.0,71,0.00,,,0.00,Wunderground v.1.15,2013-09-16 04:48:00,
2013-09-15 23:53:00,67.9,58.5,30.07,SSE,162,3.0,8.0,72,0.00,,,0.00,Wunderground v.1.15,2013-09-16 04:53:00,
2013-09-15 23:58:00,67.6,58.2,30.07,SW,232,7.0,8.0,72,0.00,,,0.00,Wunderground v.1.15,2013-09-16 04:58:00,